Time;durP1;ratioP1;P1;durP2;ratioP2;P2;SDS_P1;SDS_P2;PMS_P1;PMS_P2;Temp;Humidity;BMP_temperature;BMP_pressure;BME280_temperature;BME280_humidity;BME280_pressure;Samples;Min_cycle;Max_cycle;Signal;HPM_P1;HPM_P2
2022/05/02 04:02:52;;;;;;;1999.90;999.90;;;;;;;;;;5057241;23;20286;-70
2022/05/02 04:05:37;;;;;;;1999.90;999.90;;;;;;;;;;4993540;28;20691;-69
2022/05/02 04:08:22;;;;;;;1999.90;999.90;;;;;;;;;;4988710;28;20210;-69
2022/05/02 04:11:07;;;;;;;1999.90;999.90;;;;;;;;;;4973712;28;20231;-69
2022/05/02 04:13:52;;;;;;;1999.90;999.90;;;;;;;;;;4985525;28;20288;-69
2022/05/02 04:16:37;;;;;;;1999.90;999.90;;;;;;;;;;4993070;28;20253;-70
2022/05/02 04:19:24;;;;;;;1999.90;999.90;;;;;;;;;;4992840;28;20213;-65
2022/05/02 04:22:09;;;;;;;1999.90;999.90;;;;;;;;;;4993731;28;20728;-67
2022/05/02 04:24:54;;;;;;;1999.90;999.90;;;;;;;;;;4993260;28;20417;-67
2022/05/02 04:27:41;;;;;;;1999.90;999.90;;;;;;;;;;4993569;28;20206;-66
2022/05/02 04:30:26;;;;;;;1999.90;999.90;;;;;;;;;;4993324;28;20340;-67
2022/05/02 04:33:12;;;;;;;1999.90;999.90;;;;;;;;;;4993404;28;20214;-67
2022/05/02 04:35:58;;;;;;;1999.90;999.90;;;;;;;;;;4993044;28;20416;-67
2022/05/02 04:38:43;;;;;;;1999.90;999.90;;;;;;;;;;4992580;28;20593;-67
2022/05/02 04:41:28;;;;;;;1999.90;999.90;;;;;;;;;;4992572;28;20230;-66
2022/05/02 04:44:13;;;;;;;1999.90;999.90;;;;;;;;;;4993106;28;20218;-67
2022/05/02 04:46:58;;;;;;;1999.90;999.90;;;;;;;;;;4992934;28;20788;-67
2022/05/02 04:49:43;;;;;;;1999.90;999.90;;;;;;;;;;4992391;28;20219;-67
2022/05/02 04:52:30;;;;;;;1999.90;999.90;;;;;;;;;;4993014;28;20304;-67
2022/05/02 04:55:15;;;;;;;1999.90;999.90;;;;;;;;;;4992759;28;20231;-67
2022/05/02 04:58:00;;;;;;;1999.90;999.90;;;;;;;;;;4992285;28;20221;-67
2022/05/02 05:00:45;;;;;;;1999.90;999.90;;;;;;;;;;4992345;28;20231;-67
2022/05/02 05:03:30;;;;;;;1999.90;999.90;;;;;;;;;;4992737;28;20203;-67
2022/05/02 05:06:15;;;;;;;1999.90;999.90;;;;;;;;;;4992741;28;20327;-67
2022/05/02 05:09:01;;;;;;;1999.90;999.90;;;;;;;;;;4992086;28;20331;-67
2022/05/02 05:11:51;;;;;;;1999.90;999.90;;;;;;;;;;4992646;28;20723;-67
2022/05/02 05:17:51;;;;;;;1999.90;999.90;;;;;;;;;;4972964;28;20291;-67
2022/05/02 05:20:44;;;;;;;1999.90;999.90;;;;;;;;;;4976110;28;20212;-67
2022/05/02 05:23:36;;;;;;;1999.90;999.90;;;;;;;;;;4992579;28;20574;-67
2022/05/02 05:26:27;;;;;;;1999.90;999.90;;;;;;;;;;4992580;28;20202;-67
2022/05/02 05:29:14;;;;;;;1999.90;999.90;;;;;;;;;;4991931;28;20207;-67
2022/05/02 05:32:03;;;;;;;1999.90;999.90;;;;;;;;;;4992405;28;20351;-67
2022/05/02 05:34:57;;;;;;;1999.90;999.90;;;;;;;;;;4991741;28;20200;-67
2022/05/02 05:37:46;;;;;;;1999.90;999.90;;;;;;;;;;4991773;28;20972;-67
2022/05/02 05:40:35;;;;;;;1999.90;999.90;;;;;;;;;;4992270;28;20208;-67
2022/05/02 05:43:38;;;;;;;1999.90;999.90;;;;;;;;;;4992174;28;20211;-67
2022/05/02 05:46:33;;;;;;;1999.90;999.90;;;;;;;;;;4987372;28;20218;-67
2022/05/02 05:49:25;;;;;;;1999.90;999.90;;;;;;;;;;4991688;28;20406;-67
2022/05/02 05:52:12;;;;;;;1999.90;999.90;;;;;;;;;;4992244;28;20219;-67
2022/05/02 05:55:03;;;;;;;1999.90;999.90;;;;;;;;;;4996030;28;20579;-67
2022/05/02 05:57:49;;;;;;;1999.90;999.90;;;;;;;;;;4995642;28;20693;-67
2022/05/02 06:00:38;;;;;;;1999.90;999.90;;;;;;;;;;4995064;28;20504;-66
2022/05/02 06:03:26;;;;;;;1999.90;999.90;;;;;;;;;;4995772;28;20626;-67
2022/05/02 06:06:15;;;;;;;1999.90;999.90;;;;;;;;;;4994265;28;20210;-67
2022/05/02 06:09:01;;;;;;;1999.90;999.90;;;;;;;;;;4976240;28;20603;-67
2022/05/02 06:11:48;;;;;;;1999.90;999.90;;;;;;;;;;4986928;28;20235;-66
2022/05/02 06:18:27;;;;;;;1999.90;999.90;;;;;;;;;;4980475;28;20211;-65
2022/05/02 06:20:51;;;;;;;1999.90;999.90;;;;;;;;;;4975953;28;20259;-67
2022/05/02 06:23:39;;;;;;;1999.90;999.90;;;;;;;;;;4984230;28;20340;-67
2022/05/02 06:26:24;;;;;;;1999.90;999.90;;;;;;;;;;4995075;28;20559;-68
2022/05/02 06:29:10;;;;;;;1999.90;999.90;;;;;;;;;;4994306;28;20247;-67
2022/05/02 06:31:58;;;;;;;1999.90;999.90;;;;;;;;;;4993323;28;20426;-67
2022/05/02 06:34:43;;;;;;;1999.90;999.90;;;;;;;;;;4994662;28;20673;-67
2022/05/02 06:37:32;;;;;;;1999.90;999.90;;;;;;;;;;4995133;28;20215;-66
2022/05/02 06:40:19;;;;;;;1999.90;999.90;;;;;;;;;;4995223;28;20208;-68
2022/05/02 06:43:12;;;;;;;1999.90;999.90;;;;;;;;;;4992203;28;20955;-67
2022/05/02 06:45:59;;;;;;;1999.90;999.90;;;;;;;;;;4994701;28;20239;-67
2022/05/02 06:48:47;;;;;;;1999.90;999.90;;;;;;;;;;4995003;28;20210;-68
2022/05/02 06:51:37;;;;;;;1999.90;999.90;;;;;;;;;;4994241;28;20235;-67
2022/05/02 06:54:31;;;;;;;1999.90;999.90;;;;;;;;;;4994267;28;20203;-67
2022/05/02 06:57:22;;;;;;;1999.90;999.90;;;;;;;;;;4994473;28;20629;-67
2022/05/02 07:00:10;;;;;;;1999.90;999.90;;;;;;;;;;4993937;28;20207;-67
2022/05/02 07:03:05;;;;;;;1999.90;999.90;;;;;;;;;;4994447;28;20218;-67
2022/05/02 07:05:57;;;;;;;1999.90;999.90;;;;;;;;;;4994035;28;20215;-67
2022/05/02 07:08:49;;;;;;;1999.90;999.90;;;;;;;;;;4993017;28;20922;-67
2022/05/02 07:11:40;;;;;;;1999.90;999.90;;;;;;;;;;4994300;28;20230;-68
2022/05/02 07:14:29;;;;;;;1999.90;999.90;;;;;;;;;;4993773;28;20200;-68
2022/05/02 07:17:18;;;;;;;1999.90;999.90;;;;;;;;;;4987294;28;20231;-67
2022/05/02 07:20:04;;;;;;;1999.90;999.90;;;;;;;;;;4993387;28;20406;-68
2022/05/02 07:22:56;;;;;;;1999.90;999.90;;;;;;;;;;4974996;28;20223;-68
2022/05/02 07:25:44;;;;;;;1999.90;999.90;;;;;;;;;;4975473;28;20574;-68
2022/05/02 07:28:36;;;;;;;1999.90;999.90;;;;;;;;;;4974894;28;20283;-68
2022/05/02 07:31:23;;;;;;;1999.90;999.90;;;;;;;;;;4974737;28;20247;-67
2022/05/02 07:34:09;;;;;;;1999.90;999.90;;;;;;;;;;4989695;28;20209;-67
2022/05/02 07:36:54;;;;;;;1999.90;999.90;;;;;;;;;;4993807;28;20267;-67
2022/05/02 07:39:40;;;;;;;1999.90;999.90;;;;;;;;;;4993301;28;20314;-68
2022/05/02 07:42:27;;;;;;;1999.90;999.90;;;;;;;;;;4994238;28;20242;-67
2022/05/02 07:45:17;;;;;;;1999.90;999.90;;;;;;;;;;4994538;28;20306;-68
2022/05/02 07:48:03;;;;;;;1999.90;999.90;;;;;;;;;;4993766;28;20281;-68
2022/05/02 07:50:49;;;;;;;1999.90;999.90;;;;;;;;;;4982832;28;20247;-68
2022/05/02 07:53:35;;;;;;;1999.90;999.90;;;;;;;;;;4993576;28;20566;-68
2022/05/02 07:56:24;;;;;;;1999.90;999.90;;;;;;;;;;4993801;28;20249;-67
2022/05/02 07:59:10;;;;;;;1999.90;999.90;;;;;;;;;;4989600;28;20422;-68
2022/05/02 08:01:57;;;;;;;1999.90;999.90;;;;;;;;;;4993150;28;20824;-67
2022/05/02 08:04:44;;;;;;;1999.90;999.90;;;;;;;;;;4994817;28;20218;-68
2022/05/02 08:07:31;;;;;;;1999.90;999.90;;;;;;;;;;4993059;28;20285;-68
2022/05/02 08:10:34;;;;;;;1999.90;999.90;;;;;;;;;;4992213;28;20218;-67
2022/05/02 08:13:29;;;;;;;1999.90;999.90;;;;;;;;;;4985234;28;20215;-67
2022/05/02 08:16:19;;;;;;;1999.90;999.90;;;;;;;;;;4990305;28;20989;-68
2022/05/02 08:19:13;;;;;;;1999.90;999.90;;;;;;;;;;4986914;28;20313;-68
2022/05/02 08:28:14;;;;;;;1999.90;999.90;;;;;;;;;;4989376;28;20413;-68
2022/05/02 08:31:07;;;;;;;1999.90;999.90;;;;;;;;;;4990212;28;21183;-68
2022/05/02 08:33:56;;;;;;;1999.90;999.90;;;;;;;;;;4973379;28;20204;-67
2022/05/02 08:36:44;;;;;;;1999.90;999.90;;;;;;;;;;4984749;28;20347;-68
2022/05/02 08:39:32;;;;;;;1999.90;999.90;;;;;;;;;;4991239;28;20495;-67
2022/05/02 08:42:39;;;;;;;1999.90;999.90;;;;;;;;;;4992042;28;20226;-68
2022/05/02 08:45:34;;;;;;;1999.90;999.90;;;;;;;;;;4992804;28;20205;-67
2022/05/02 08:48:38;;;;;;;1999.90;999.90;;;;;;;;;;4992027;28;20274;-67
2022/05/02 08:51:41;;;;;;;1999.90;999.90;;;;;;;;;;4991603;28;20237;-67
2022/05/02 08:54:45;;;;;;;1999.90;999.90;;;;;;;;;;4993101;28;20208;-68
2022/05/02 08:57:41;;;;;;;1999.90;999.90;;;;;;;;;;4990018;28;20218;-68
2022/05/02 09:00:29;;;;;;;1999.90;999.90;;;;;;;;;;4993125;28;20326;-68
2022/05/02 09:03:33;;;;;;;1999.90;999.90;;;;;;;;;;4992217;28;20211;-68
2022/05/02 09:06:38;;;;;;;1999.90;999.90;;;;;;;;;;4991889;28;20278;-67
2022/05/02 09:09:24;;;;;;;1999.90;999.90;;;;;;;;;;4973492;28;20774;-68
2022/05/02 09:12:24;;;;;;;1999.90;999.90;;;;;;;;;;4985531;28;20281;-67
2022/05/02 09:15:13;;;;;;;1999.90;999.90;;;;;;;;;;4972742;28;20207;-67
2022/05/02 09:18:17;;;;;;;1999.90;999.90;;;;;;;;;;4983747;28;21003;-67
2022/05/02 09:21:14;;;;;;;1999.90;999.90;;;;;;;;;;4990528;28;20541;-67
2022/05/02 09:24:12;;;;;;;1999.90;999.90;;;;;;;;;;4991899;28;20210;-67
2022/05/02 09:27:03;;;;;;;1999.90;999.90;;;;;;;;;;4992610;28;20327;-67
2022/05/02 09:30:06;;;;;;;1999.90;999.90;;;;;;;;;;4995655;28;20334;-67
2022/05/02 09:33:14;;;;;;;1999.90;999.90;;;;;;;;;;4995671;28;20226;-67
2022/05/02 09:36:04;;;;;;;1999.90;999.90;;;;;;;;;;4999516;28;20221;-67
2022/05/02 09:38:51;;;;;;;1999.90;999.90;;;;;;;;;;4998776;28;20207;-67
2022/05/02 09:41:50;;;;;;;1999.90;999.90;;;;;;;;;;4995517;28;20596;-67
2022/05/02 09:51:00;;;;;;;1999.90;999.90;;;;;;;;;;4996155;28;20278;-67
2022/05/02 09:53:56;;;;;;;1999.90;999.90;;;;;;;;;;4996007;28;20203;-67
2022/05/02 09:56:43;;;;;;;1999.90;999.90;;;;;;;;;;4995394;28;20298;-67
2022/05/02 09:59:29;;;;;;;1999.90;999.90;;;;;;;;;;4996168;28;20413;-67
2022/05/02 10:02:18;;;;;;;1999.90;999.90;;;;;;;;;;4996361;28;20247;-67
2022/05/02 10:05:06;;;;;;;1999.90;999.90;;;;;;;;;;4995508;28;20210;-66
2022/05/02 10:08:02;;;;;;;1999.90;999.90;;;;;;;;;;4996404;28;20207;-66
2022/05/02 10:10:52;;;;;;;1999.90;999.90;;;;;;;;;;4988630;28;20226;-65
2022/05/02 10:13:43;;;;;;;1999.90;999.90;;;;;;;;;;4984548;28;20761;-66
2022/05/02 10:16:34;;;;;;;1999.90;999.90;;;;;;;;;;4995495;28;20215;-64
2022/05/02 10:19:21;;;;;;;1999.90;999.90;;;;;;;;;;4990837;28;20769;-68
2022/05/02 10:22:22;;;;;;;1999.90;999.90;;;;;;;;;;4993826;28;20231;-67
2022/05/02 10:25:12;;;;;;;1999.90;999.90;;;;;;;;;;4995602;28;20250;-66
2022/05/02 10:28:04;;;;;;;1999.90;999.90;;;;;;;;;;4987435;28;20621;-67
2022/05/02 10:30:54;;;;;;;1999.90;999.90;;;;;;;;;;4993200;28;20421;-68
2022/05/02 10:33:43;;;;;;;1999.90;999.90;;;;;;;;;;4975206;28;20220;-68
2022/05/02 10:36:29;;;;;;;1999.90;999.90;;;;;;;;;;4976677;28;20269;-67
2022/05/02 10:39:16;;;;;;;1999.90;999.90;;;;;;;;;;4993509;28;20235;-67
2022/05/02 10:42:05;;;;;;;1999.90;999.90;;;;;;;;;;4993808;28;20445;-67
2022/05/02 10:44:53;;;;;;;1999.90;999.90;;;;;;;;;;4974675;28;20291;-67
2022/05/02 10:47:44;;;;;;;1999.90;999.90;;;;;;;;;;4985416;28;20199;-66
2022/05/02 10:50:32;;;;;;;1999.90;999.90;;;;;;;;;;4994676;28;20205;-68
2022/05/02 10:53:24;;;;;;;1999.90;999.90;;;;;;;;;;4994491;28;20331;-68
2022/05/02 10:56:18;;;;;;;1999.90;999.90;;;;;;;;;;4994145;28;20306;-68
2022/05/02 10:59:05;;;;;;;1999.90;999.90;;;;;;;;;;4994494;28;20216;-67
2022/05/02 11:02:04;;;;;;;1999.90;999.90;;;;;;;;;;4994204;28;20733;-68
2022/05/02 11:05:07;;;;;;;1999.90;999.90;;;;;;;;;;4993596;28;20215;-68
2022/05/02 11:08:03;;;;;;;1999.90;999.90;;;;;;;;;;4993599;28;20203;-67
2022/05/02 11:10:51;;;;;;;1999.90;999.90;;;;;;;;;;4993859;28;20219;-68
2022/05/02 11:13:40;;;;;;;1999.90;999.90;;;;;;;;;;4990165;28;20476;-68
2022/05/02 11:16:27;;;;;;;1999.90;999.90;;;;;;;;;;4993553;28;20259;-68
2022/05/02 11:22:26;;;;;;;1999.90;999.90;;;;;;;;;;4983963;28;20223;-67
2022/05/02 11:25:14;;;;;;;1999.90;999.90;;;;;;;;;;4989390;28;20424;-67
2022/05/02 11:28:01;;;;;;;1999.90;999.90;;;;;;;;;;4992689;28;20677;-67
2022/05/02 11:30:47;;;;;;;1999.90;999.90;;;;;;;;;;4992465;28;20275;-68
2022/05/02 11:33:38;;;;;;;1999.90;999.90;;;;;;;;;;4993204;28;20233;-68
2022/05/02 11:36:25;;;;;;;1999.90;999.90;;;;;;;;;;4991355;28;20224;-68
2022/05/02 11:39:14;;;;;;;1999.90;999.90;;;;;;;;;;4993326;28;20200;-67
2022/05/02 11:42:04;;;;;;;1999.90;999.90;;;;;;;;;;4992850;28;20287;-68
2022/05/02 11:44:59;;;;;;;1999.90;999.90;;;;;;;;;;4992868;28;20218;-68
2022/05/02 11:48:07;;;;;;;1999.90;999.90;;;;;;;;;;4992803;28;20203;-68
2022/05/02 11:50:56;;;;;;;1999.90;999.90;;;;;;;;;;4992044;28;20227;-68
2022/05/02 11:53:48;;;;;;;1999.90;999.90;;;;;;;;;;4991923;28;20274;-67
2022/05/02 11:56:38;;;;;;;1999.90;999.90;;;;;;;;;;4992145;28;20263;-67
2022/05/02 11:59:24;;;;;;;1999.90;999.90;;;;;;;;;;4992248;28;20209;-67
2022/05/02 12:02:19;;;;;;;1999.90;999.90;;;;;;;;;;4991034;28;20720;-68
2022/05/02 12:05:06;;;;;;;1999.90;999.90;;;;;;;;;;4991087;28;20464;-67
2022/05/02 12:07:53;;;;;;;1999.90;999.90;;;;;;;;;;4980965;28;20203;-67
2022/05/02 12:10:39;;;;;;;1999.90;999.90;;;;;;;;;;4992512;28;20208;-67
2022/05/02 12:13:32;;;;;;;1999.90;999.90;;;;;;;;;;4989186;28;20207;-67
2022/05/02 12:16:18;;;;;;;1999.90;999.90;;;;;;;;;;4993043;28;20299;-68
2022/05/02 12:19:08;;;;;;;1999.90;999.90;;;;;;;;;;4992883;28;20204;-67
2022/05/02 12:21:54;;;;;;;1999.90;999.90;;;;;;;;;;4992901;28;20252;-68
2022/05/02 12:24:41;;;;;;;1999.90;999.90;;;;;;;;;;4992343;28;20745;-67
2022/05/02 12:27:29;;;;;;;1999.90;999.90;;;;;;;;;;4992695;28;20572;-67
2022/05/02 12:30:14;;;;;;;1999.90;999.90;;;;;;;;;;4992235;28;20770;-66
2022/05/02 12:33:01;;;;;;;1999.90;999.90;;;;;;;;;;4972964;28;20212;-67
2022/05/02 12:35:46;;;;;;;1999.90;999.90;;;;;;;;;;4976547;28;20753;-67
2022/05/02 12:38:32;;;;;;;1999.90;999.90;;;;;;;;;;4992040;28;20273;-67
2022/05/02 12:41:24;;;;;;;1999.90;999.90;;;;;;;;;;4981375;28;20945;-67
2022/05/02 12:44:09;;;;;;;1999.90;999.90;;;;;;;;;;4992591;28;20312;-67
2022/05/02 12:46:56;;;;;;;1999.90;999.90;;;;;;;;;;4991991;28;20422;-67
2022/05/02 12:49:53;;;;;;;1999.90;999.90;;;;;;;;;;4993123;28;20222;-66
2022/05/02 12:52:43;;;;;;;1999.90;999.90;;;;;;;;;;4974714;28;20278;-67
2022/05/02 12:55:30;;;;;;;1999.90;999.90;;;;;;;;;;4974011;28;20698;-67
2022/05/02 13:01:21;;;;;;;1999.90;999.90;;;;;;;;;;4982334;28;20239;-67
2022/05/02 13:04:06;;;;;;;1999.90;999.90;;;;;;;;;;4992607;28;20212;-67
2022/05/02 13:06:51;;;;;;;1999.90;999.90;;;;;;;;;;4992478;28;20878;-67
2022/05/02 13:09:37;;;;;;;1999.90;999.90;;;;;;;;;;4976297;28;20199;-67
2022/05/02 13:12:22;;;;;;;1999.90;999.90;;;;;;;;;;4988940;28;20240;-68
2022/05/02 13:15:10;;;;;;;1999.90;999.90;;;;;;;;;;4992223;28;20269;-67
2022/05/02 13:18:00;;;;;;;1999.90;999.90;;;;;;;;;;4990888;28;20433;-67
2022/05/02 13:20:58;;;;;;;1999.90;999.90;;;;;;;;;;4991827;28;20231;-68
2022/05/02 13:23:44;;;;;;;1999.90;999.90;;;;;;;;;;4991829;28;20709;-67
2022/05/02 13:26:38;;;;;;;1999.90;999.90;;;;;;;;;;4992113;28;20208;-67
2022/05/02 13:29:29;;;;;;;1999.90;999.90;;;;;;;;;;4991757;28;20702;-67
2022/05/02 13:32:17;;;;;;;1999.90;999.90;;;;;;;;;;4991536;28;20234;-67
2022/05/02 13:35:10;;;;;;;1999.90;999.90;;;;;;;;;;4991763;28;20335;-68
2022/05/02 13:37:56;;;;;;;1999.90;999.90;;;;;;;;;;4990718;28;20227;-67
2022/05/02 13:40:46;;;;;;;1999.90;999.90;;;;;;;;;;4991417;28;20235;-67
2022/05/02 13:43:36;;;;;;;1999.90;999.90;;;;;;;;;;4991762;28;20208;-67
2022/05/02 13:46:28;;;;;;;1999.90;999.90;;;;;;;;;;4991036;28;20211;-67
2022/05/02 13:49:21;;;;;;;1999.90;999.90;;;;;;;;;;4991512;28;20568;-67
2022/05/02 13:52:14;;;;;;;1999.90;999.90;;;;;;;;;;4991741;28;20229;-67
2022/05/02 13:55:04;;;;;;;1999.90;999.90;;;;;;;;;;4991351;28;20229;-67
2022/05/02 13:57:53;;;;;;;1999.90;999.90;;;;;;;;;;4991276;28;20219;-67
2022/05/02 14:14:17;;;;;;;1999.90;999.90;;;;;;;;;;5109086;27;20521;-68
2022/05/02 14:17:02;;;;;;;1999.90;999.90;;;;;;;;;;5108088;28;20213;-67
2022/05/02 14:19:47;;;;;;;1999.90;999.90;;;;;;;;;;5106901;28;20229;-68
2022/05/02 14:22:33;;;;;;;1999.90;999.90;;;;;;;;;;5089373;28;20232;-67
2022/05/02 14:25:26;;;;;;;1999.90;999.90;;;;;;;;;;5088659;28;20203;-68
2022/05/02 14:28:12;;;;;;;1999.90;999.90;;;;;;;;;;5088149;28;20200;-68
2022/05/02 14:31:01;;;;;;;1999.90;999.90;;;;;;;;;;5088129;28;20226;-68
2022/05/02 14:33:46;;;;;;;1999.90;999.90;;;;;;;;;;5077823;28;20944;-67
2022/05/02 14:36:31;;;;;;;1999.90;999.90;;;;;;;;;;5088679;28;20756;-68
2022/05/02 14:39:17;;;;;;;1999.90;999.90;;;;;;;;;;5086200;28;21002;-68
2022/05/02 14:42:03;;;;;;;1999.90;999.90;;;;;;;;;;5088243;28;20223;-66
2022/05/02 14:44:48;;;;;;;1999.90;999.90;;;;;;;;;;5083589;28;20583;-67
2022/05/02 14:47:34;;;;;;;1999.90;999.90;;;;;;;;;;5089207;28;20280;-67
2022/05/02 14:50:20;;;;;;;1999.90;999.90;;;;;;;;;;5089102;28;20218;-67
2022/05/02 14:53:07;;;;;;;1999.90;999.90;;;;;;;;;;5088388;28;20281;-66
2022/05/02 14:55:52;;;;;;;1999.90;999.90;;;;;;;;;;5088231;28;20409;-67
2022/05/02 14:58:38;;;;;;;1999.90;999.90;;;;;;;;;;5088286;28;20219;-66
2022/05/02 15:01:26;;;;;;;1999.90;999.90;;;;;;;;;;5088424;28;20275;-67
2022/05/02 15:04:15;;;;;;;1999.90;999.90;;;;;;;;;;5088817;28;20710;-66
2022/05/02 15:07:01;;;;;;;1999.90;999.90;;;;;;;;;;5089385;28;20341;-68
2022/05/02 15:12:57;;;;;;;1999.90;999.90;;;;;;;;;;5068417;28;20566;-66
2022/05/02 15:15:47;;;;;;;1999.90;999.90;;;;;;;;;;5055259;28;20310;-66
2022/05/02 15:19:33;;;;;;;1999.90;999.90;;;;;;;;;;5055565;28;20202;-66
2022/05/02 15:22:05;;;;;;;1999.90;999.90;;;;;;;;;;5053564;28;20863;-66
2022/05/02 15:24:57;;;;;;;1999.90;999.90;;;;;;;;;;5054201;28;20208;-66
2022/05/02 15:36:53;;;;;;;1999.90;999.90;;;;;;;;;;5070535;28;20217;-66
2022/05/02 15:39:39;;;;;;;1999.90;999.90;;;;;;;;;;5073482;28;20247;-66
2022/05/02 15:42:24;;;;;;;1999.90;999.90;;;;;;;;;;5053974;28;20225;-66
2022/05/02 15:45:20;;;;;;;1999.90;999.90;;;;;;;;;;5055401;28;20730;-67
2022/05/02 15:48:29;;;;;;;1999.90;999.90;;;;;;;;;;5055124;28;20203;-67
2022/05/02 15:51:24;;;;;;;1999.90;999.90;;;;;;;;;;5065785;28;20229;-66
2022/05/02 15:54:28;;;;;;;1999.90;999.90;;;;;;;;;;5074095;28;20205;-66
2022/05/02 15:57:41;;;;;;;1999.90;999.90;;;;;;;;;;5074141;28;20223;-68
2022/05/02 16:00:28;;;;;;;1999.90;999.90;;;;;;;;;;5073246;28;20763;-67
2022/05/02 16:03:15;;;;;;;1999.90;999.90;;;;;;;;;;5072819;28;20219;-68
2022/05/02 16:06:04;;;;;;;1999.90;999.90;;;;;;;;;;5073688;28;20253;-67
2022/05/02 16:11:55;;;;;;;1999.90;999.90;;;;;;;;;;5069952;28;20227;-68
2022/05/02 16:14:40;;;;;;;1999.90;999.90;;;;;;;;;;5072772;28;20748;-67
2022/05/02 16:17:27;;;;;;;1999.90;999.90;;;;;;;;;;5073559;28;20714;-67
2022/05/02 16:20:12;;;;;;;1999.90;999.90;;;;;;;;;;5073246;28;20691;-67
2022/05/02 16:22:57;;;;;;;1999.90;999.90;;;;;;;;;;5073252;28;20309;-68
2022/05/02 16:25:44;;;;;;;1999.90;999.90;;;;;;;;;;5072235;28;20220;-67
2022/05/02 16:28:29;;;;;;;1999.90;999.90;;;;;;;;;;5072645;28;20217;-68
2022/05/02 16:31:15;;;;;;;1999.90;999.90;;;;;;;;;;5073126;28;20741;-68
2022/05/02 16:34:02;;;;;;;1999.90;999.90;;;;;;;;;;5071191;28;20255;-68
2022/05/02 16:36:47;;;;;;;1999.90;999.90;;;;;;;;;;5071462;28;20233;-68
2022/05/02 16:39:32;;;;;;;1999.90;999.90;;;;;;;;;;5070288;28;20204;-67
2022/05/02 16:42:19;;;;;;;1999.90;999.90;;;;;;;;;;5072109;28;20590;-67
2022/05/02 16:45:05;;;;;;;1999.90;999.90;;;;;;;;;;5063700;28;20673;-67
2022/05/02 16:47:50;;;;;;;1999.90;999.90;;;;;;;;;;5072408;28;20216;-68
2022/05/02 16:50:38;;;;;;;1999.90;999.90;;;;;;;;;;5071687;28;20204;-67
2022/05/02 16:53:24;;;;;;;1999.90;999.90;;;;;;;;;;5072731;28;20611;-67
2022/05/02 16:56:09;;;;;;;1999.90;999.90;;;;;;;;;;5071128;28;20470;-67
2022/05/02 16:58:54;;;;;;;1999.90;999.90;;;;;;;;;;5070845;28;20224;-69
2022/05/02 17:01:40;;;;;;;1999.90;999.90;;;;;;;;;;5072037;28;20726;-68
2022/05/02 17:04:25;;;;;;;1999.90;999.90;;;;;;;;;;5052264;28;20228;-68
2022/05/02 17:07:11;;;;;;;1999.90;999.90;;;;;;;;;;5068851;28;20204;-68
2022/05/02 17:09:56;;;;;;;1999.90;999.90;;;;;;;;;;5072367;28;20203;-68
2022/05/02 17:12:41;;;;;;;1999.90;999.90;;;;;;;;;;5072229;28;20243;-68
2022/05/02 17:15:26;;;;;;;1999.90;999.90;;;;;;;;;;5072224;28;20678;-67
2022/05/02 17:18:14;;;;;;;1999.90;999.90;;;;;;;;;;5071569;28;20208;-68
2022/05/02 17:21:01;;;;;;;1999.90;999.90;;;;;;;;;;5071911;28;20268;-67
2022/05/02 17:23:48;;;;;;;1999.90;999.90;;;;;;;;;;5070937;28;20477;-67
2022/05/02 17:26:41;;;;;;;1999.90;999.90;;;;;;;;;;5072229;28;20208;-68
2022/05/02 17:29:28;;;;;;;1999.90;999.90;;;;;;;;;;5072059;28;20208;-67
2022/05/02 17:32:14;;;;;;;1999.90;999.90;;;;;;;;;;5072204;28;20697;-68
2022/05/02 17:35:00;;;;;;;1999.90;999.90;;;;;;;;;;5060665;28;20910;-67
2022/05/02 17:37:56;;;;;;;1999.90;999.90;;;;;;;;;;5070646;28;20212;-68
2022/05/02 17:40:42;;;;;;;1999.90;999.90;;;;;;;;;;5071719;28;20204;-68
2022/05/02 17:43:27;;;;;;;1999.90;999.90;;;;;;;;;;5071780;28;20258;-68
2022/05/02 17:46:12;;;;;;;1999.90;999.90;;;;;;;;;;5070690;28;20270;-68
2022/05/02 17:48:58;;;;;;;1999.90;999.90;;;;;;;;;;5071672;28;20271;-68
2022/05/02 17:51:53;;;;;;;1999.90;999.90;;;;;;;;;;5071556;28;21017;-67
2022/05/02 17:54:42;;;;;;;1999.90;999.90;;;;;;;;;;5071730;28;20201;-67
2022/05/02 17:57:29;;;;;;;1999.90;999.90;;;;;;;;;;5070170;28;20708;-66
2022/05/02 18:00:18;;;;;;;1999.90;999.90;;;;;;;;;;5071590;28;20208;-67
2022/05/02 18:03:10;;;;;;;1999.90;999.90;;;;;;;;;;5071409;28;20582;-67
2022/05/02 18:05:57;;;;;;;1999.90;999.90;;;;;;;;;;5071656;28;20204;-67
2022/05/02 18:08:41;;;;;;;1999.90;999.90;;;;;;;;;;5071416;28;20212;-67
2022/05/02 18:14:41;;;;;;;1999.90;999.90;;;;;;;;;;5070675;28;20140;-66
2022/05/02 18:17:33;;;;;;;1999.90;999.90;;;;;;;;;;5071454;28;20618;-66
2022/05/02 18:20:19;;;;;;;1999.90;999.90;;;;;;;;;;5071098;28;20675;-65
2022/05/02 18:23:05;;;;;;;1999.90;999.90;;;;;;;;;;5071476;28;20262;-66
2022/05/02 18:25:51;;;;;;;1999.90;999.90;;;;;;;;;;5054418;28;20225;-66
2022/05/02 18:28:36;;;;;;;1999.90;999.90;;;;;;;;;;5051220;28;20340;-66
2022/05/02 18:31:26;;;;;;;1999.90;999.90;;;;;;;;;;5051360;28;20232;-66
2022/05/02 18:34:13;;;;;;;1999.90;999.90;;;;;;;;;;5051467;28;20206;-66
2022/05/02 18:36:58;;;;;;;1999.90;999.90;;;;;;;;;;5059353;28;20564;-65
2022/05/02 18:39:46;;;;;;;1999.90;999.90;;;;;;;;;;5071070;28;20205;-68
2022/05/02 18:42:34;;;;;;;1999.90;999.90;;;;;;;;;;5071026;28;20813;-68
2022/05/02 18:54:35;;;;;;;1999.90;999.90;;;;;;;;;;5074987;28;20196;-66
2022/05/02 18:57:21;;;;;;;1999.90;999.90;;;;;;;;;;5074234;28;20489;-66
2022/05/02 19:00:09;;;;;;;1999.90;999.90;;;;;;;;;;5074528;28;20201;-67
2022/05/02 19:02:55;;;;;;;1999.90;999.90;;;;;;;;;;5074775;28;20209;-67
2022/05/02 19:05:42;;;;;;;1999.90;999.90;;;;;;;;;;5073859;28;20607;-64
2022/05/02 19:08:29;;;;;;;1999.90;999.90;;;;;;;;;;5061477;28;20570;-65
2022/05/02 19:11:14;;;;;;;1999.90;999.90;;;;;;;;;;5074699;28;20366;-66
2022/05/02 19:14:02;;;;;;;1999.90;999.90;;;;;;;;;;5074423;28;20224;-67
2022/05/02 19:16:47;;;;;;;1999.90;999.90;;;;;;;;;;5074653;28;20248;-66
2022/05/02 19:19:32;;;;;;;1999.90;999.90;;;;;;;;;;5074392;28;20205;-67
2022/05/02 19:22:25;;;;;;;1999.90;999.90;;;;;;;;;;5074304;28;20290;-67
2022/05/02 19:25:11;;;;;;;1999.90;999.90;;;;;;;;;;5074243;28;20366;-67
2022/05/02 19:27:58;;;;;;;1999.90;999.90;;;;;;;;;;5073831;28;20983;-66
2022/05/02 19:30:44;;;;;;;1999.90;999.90;;;;;;;;;;5074393;28;20278;-66
2022/05/02 19:33:33;;;;;;;1999.90;999.90;;;;;;;;;;5073217;28;20201;-66
2022/05/02 19:39:24;;;;;;;1999.90;999.90;;;;;;;;;;5066753;28;20473;-66
2022/05/02 19:42:12;;;;;;;1999.90;999.90;;;;;;;;;;5074049;28;20252;-66
2022/05/02 19:44:59;;;;;;;1999.90;999.90;;;;;;;;;;5073819;28;20228;-65
2022/05/02 19:47:44;;;;;;;1999.90;999.90;;;;;;;;;;5073548;28;20274;-66
2022/05/02 19:50:29;;;;;;;1999.90;999.90;;;;;;;;;;5073754;28;20592;-68
2022/05/02 19:53:15;;;;;;;1999.90;999.90;;;;;;;;;;5074019;28;20227;-66
2022/05/02 19:56:02;;;;;;;1999.90;999.90;;;;;;;;;;5073590;28;20246;-67
2022/05/02 19:58:48;;;;;;;1999.90;999.90;;;;;;;;;;5073539;28;20617;-66
2022/05/02 20:01:33;;;;;;;1999.90;999.90;;;;;;;;;;5073309;28;20238;-67
2022/05/02 20:04:18;;;;;;;1999.90;999.90;;;;;;;;;;5073698;28;20223;-66
2022/05/02 20:07:04;;;;;;;1999.90;999.90;;;;;;;;;;5072880;28;20212;-67
2022/05/02 20:09:49;;;;;;;1999.90;999.90;;;;;;;;;;5052432;28;20401;-67
2022/05/02 20:12:35;;;;;;;1999.90;999.90;;;;;;;;;;5069938;28;20305;-66
2022/05/02 20:15:20;;;;;;;1999.90;999.90;;;;;;;;;;5072109;28;20238;-67
2022/05/02 20:18:05;;;;;;;1999.90;999.90;;;;;;;;;;5071500;28;20633;-67
2022/05/02 20:20:50;;;;;;;1999.90;999.90;;;;;;;;;;5072111;28;20411;-66
2022/05/02 20:23:35;;;;;;;1999.90;999.90;;;;;;;;;;5073242;28;20718;-67
2022/05/02 20:26:20;;;;;;;1999.90;999.90;;;;;;;;;;5073708;28;20282;-67
2022/05/02 20:29:07;;;;;;;1999.90;999.90;;;;;;;;;;5068388;28;20210;-67
2022/05/02 20:37:59;;;;;;;1999.90;999.90;;;;;;;;;;5060844;28;20208;-64
2022/05/02 20:40:48;;;;;;;1999.90;999.90;;;;;;;;;;5068391;28;20597;-66
2022/05/02 20:43:39;;;;;;;1999.90;999.90;;;;;;;;;;5069782;28;20776;-66
2022/05/02 20:46:31;;;;;;;1999.90;999.90;;;;;;;;;;5059843;28;20207;-67
2022/05/02 20:49:16;;;;;;;1999.90;999.90;;;;;;;;;;5065999;28;20275;-67
2022/05/02 20:52:03;;;;;;;1999.90;999.90;;;;;;;;;;5067085;28;20311;-66
2022/05/02 20:54:49;;;;;;;1999.90;999.90;;;;;;;;;;5070577;28;20246;-67
2022/05/02 20:57:34;;;;;;;1999.90;999.90;;;;;;;;;;5070735;28;20686;-67
2022/05/02 21:00:20;;;;;;;1999.90;999.90;;;;;;;;;;5070951;28;20223;-67